sensor_id;sensor_type;location;lat;lon;timestamp;P1;durP1;ratioP1;P2;durP2;ratioP2
11064;SDS011;5585;52.530;7.320;2023-03-01T00:02:07;10.30;;;7.67;;
11064;SDS011;5585;52.530;7.320;2023-03-01T00:04:33;9.80;;;7.50;;
11064;SDS011;5585;52.530;7.320;2023-03-01T00:07:00;9.73;;;7.33;;
11064;SDS011;5585;52.530;7.320;2023-03-01T00:09:27;10.13;;;7.27;;
11064;SDS011;5585;52.530;7.320;2023-03-01T00:11:55;9.87;;;7.50;;
11064;SDS011;5585;52.530;7.320;2023-03-01T00:14:22;9.13;;;7.60;;
11064;SDS011;5585;52.530;7.320;2023-03-01T00:16:48;10.07;;;7.80;;
11064;SDS011;5585;52.530;7.320;2023-03-01T00:19:15;9.63;;;7.43;;
11064;SDS011;5585;52.530;7.320;2023-03-01T00:21:42;10.73;;;7.57;;
11064;SDS011;5585;52.530;7.320;2023-03-01T00:24:09;8.57;;;6.80;;
11064;SDS011;5585;52.530;7.320;2023-03-01T00:26:36;9.97;;;7.97;;
11064;SDS011;5585;52.530;7.320;2023-03-01T00:29:04;10.07;;;7.17;;
11064;SDS011;5585;52.530;7.320;2023-03-01T00:31:31;7.87;;;6.70;;
11064;SDS011;5585;52.530;7.320;2023-03-01T00:33:59;10.03;;;7.67;;
11064;SDS011;5585;52.530;7.320;2023-03-01T00:36:26;10.30;;;6.50;;
11064;SDS011;5585;52.530;7.320;2023-03-01T00:38:53;8.17;;;6.63;;
11064;SDS011;5585;52.530;7.320;2023-03-01T00:41:20;9.23;;;7.30;;
11064;SDS011;5585;52.530;7.320;2023-03-01T00:43:47;8.73;;;6.70;;
11064;SDS011;5585;52.530;7.320;2023-03-01T00:46:16;8.03;;;6.63;;
11064;SDS011;5585;52.530;7.320;2023-03-01T00:48:43;9.57;;;6.70;;
11064;SDS011;5585;52.530;7.320;2023-03-01T00:51:11;8.97;;;6.77;;
11064;SDS011;5585;52.530;7.320;2023-03-01T00:53:37;8.80;;;6.77;;
11064;SDS011;5585;52.530;7.320;2023-03-01T00:56:05;8.03;;;6.50;;
11064;SDS011;5585;52.530;7.320;2023-03-01T00:58:32;11.63;;;6.53;;
11064;SDS011;5585;52.530;7.320;2023-03-01T01:00:58;8.20;;;6.30;;
11064;SDS011;5585;52.530;7.320;2023-03-01T01:03:27;7.33;;;5.97;;
11064;SDS011;5585;52.530;7.320;2023-03-01T01:05:53;6.87;;;6.03;;
11064;SDS011;5585;52.530;7.320;2023-03-01T01:08:20;6.63;;;5.93;;
11064;SDS011;5585;52.530;7.320;2023-03-01T01:10:46;7.70;;;6.30;;
11064;SDS011;5585;52.530;7.320;2023-03-01T01:13:13;6.93;;;6.20;;
11064;SDS011;5585;52.530;7.320;2023-03-01T01:15:39;6.50;;;5.73;;
11064;SDS011;5585;52.530;7.320;2023-03-01T01:18:06;8.23;;;5.87;;
11064;SDS011;5585;52.530;7.320;2023-03-01T01:20:34;8.63;;;5.90;;
11064;SDS011;5585;52.530;7.320;2023-03-01T01:23:01;8.33;;;6.07;;
11064;SDS011;5585;52.530;7.320;2023-03-01T01:25:28;9.20;;;6.37;;
11064;SDS011;5585;52.530;7.320;2023-03-01T01:27:55;7.93;;;6.43;;
11064;SDS011;5585;52.530;7.320;2023-03-01T01:30:21;8.17;;;6.20;;
11064;SDS011;5585;52.530;7.320;2023-03-01T01:32:48;9.10;;;6.83;;
11064;SDS011;5585;52.530;7.320;2023-03-01T01:35:15;7.67;;;6.43;;
11064;SDS011;5585;52.530;7.320;2023-03-01T01:37:43;8.23;;;6.10;;
11064;SDS011;5585;52.530;7.320;2023-03-01T01:40:10;9.57;;;6.87;;
11064;SDS011;5585;52.530;7.320;2023-03-01T01:42:38;8.43;;;6.53;;
11064;SDS011;5585;52.530;7.320;2023-03-01T01:47:50;8.83;;;6.67;;
11064;SDS011;5585;52.530;7.320;2023-03-01T01:50:16;9.60;;;6.40;;
11064;SDS011;5585;52.530;7.320;2023-03-01T01:52:45;8.97;;;6.60;;
11064;SDS011;5585;52.530;7.320;2023-03-01T01:55:14;9.77;;;6.50;;
11064;SDS011;5585;52.530;7.320;2023-03-01T01:57:47;8.40;;;6.20;;
11064;SDS011;5585;52.530;7.320;2023-03-01T02:00:16;8.83;;;6.80;;
11064;SDS011;5585;52.530;7.320;2023-03-01T02:02:43;9.00;;;6.60;;
11064;SDS011;5585;52.530;7.320;2023-03-01T02:05:12;10.97;;;6.00;;
11064;SDS011;5585;52.530;7.320;2023-03-01T02:07:41;7.97;;;6.07;;
11064;SDS011;5585;52.530;7.320;2023-03-01T02:10:09;7.17;;;5.70;;
11064;SDS011;5585;52.530;7.320;2023-03-01T02:12:36;7.57;;;5.93;;
11064;SDS011;5585;52.530;7.320;2023-03-01T02:15:04;7.50;;;5.93;;
11064;SDS011;5585;52.530;7.320;2023-03-01T02:17:31;7.90;;;5.67;;
11064;SDS011;5585;52.530;7.320;2023-03-01T02:20:02;8.13;;;5.47;;
11064;SDS011;5585;52.530;7.320;2023-03-01T02:22:32;6.47;;;5.50;;
11064;SDS011;5585;52.530;7.320;2023-03-01T02:25:03;7.17;;;5.70;;
11064;SDS011;5585;52.530;7.320;2023-03-01T02:27:34;7.93;;;5.83;;
11064;SDS011;5585;52.530;7.320;2023-03-01T02:30:03;6.60;;;4.93;;
11064;SDS011;5585;52.530;7.320;2023-03-01T02:32:30;6.73;;;5.40;;
11064;SDS011;5585;52.530;7.320;2023-03-01T02:34:56;7.13;;;5.40;;
11064;SDS011;5585;52.530;7.320;2023-03-01T02:37:22;5.73;;;4.83;;
11064;SDS011;5585;52.530;7.320;2023-03-01T02:39:52;6.07;;;5.20;;
11064;SDS011;5585;52.530;7.320;2023-03-01T02:42:21;5.83;;;5.13;;
11064;SDS011;5585;52.530;7.320;2023-03-01T02:44:48;6.27;;;5.03;;
11064;SDS011;5585;52.530;7.320;2023-03-01T02:47:16;6.07;;;5.17;;
11064;SDS011;5585;52.530;7.320;2023-03-01T02:49:43;7.97;;;5.33;;
11064;SDS011;5585;52.530;7.320;2023-03-01T02:52:23;7.00;;;5.33;;
11064;SDS011;5585;52.530;7.320;2023-03-01T02:54:55;6.50;;;5.30;;
11064;SDS011;5585;52.530;7.320;2023-03-01T02:57:23;7.27;;;5.47;;
11064;SDS011;5585;52.530;7.320;2023-03-01T02:59:50;6.77;;;5.27;;
11064;SDS011;5585;52.530;7.320;2023-03-01T03:02:21;7.07;;;5.20;;
11064;SDS011;5585;52.530;7.320;2023-03-01T03:05:01;9.43;;;5.90;;
11064;SDS011;5585;52.530;7.320;2023-03-01T03:07:28;8.10;;;5.73;;
11064;SDS011;5585;52.530;7.320;2023-03-01T03:09:55;5.90;;;5.13;;
11064;SDS011;5585;52.530;7.320;2023-03-01T03:12:21;8.93;;;6.07;;
11064;SDS011;5585;52.530;7.320;2023-03-01T03:14:48;6.70;;;5.93;;
11064;SDS011;5585;52.530;7.320;2023-03-01T03:17:14;6.50;;;5.73;;
11064;SDS011;5585;52.530;7.320;2023-03-01T03:19:42;5.73;;;5.13;;
11064;SDS011;5585;52.530;7.320;2023-03-01T03:22:10;6.07;;;5.33;;
11064;SDS011;5585;52.530;7.320;2023-03-01T03:24:37;7.13;;;5.83;;
11064;SDS011;5585;52.530;7.320;2023-03-01T03:27:04;7.00;;;5.70;;
11064;SDS011;5585;52.530;7.320;2023-03-01T03:29:30;8.27;;;6.27;;
11064;SDS011;5585;52.530;7.320;2023-03-01T03:31:57;7.47;;;5.80;;
11064;SDS011;5585;52.530;7.320;2023-03-01T03:34:23;7.60;;;6.10;;
11064;SDS011;5585;52.530;7.320;2023-03-01T03:36:54;6.40;;;5.70;;
11064;SDS011;5585;52.530;7.320;2023-03-01T03:39:24;7.23;;;5.80;;
11064;SDS011;5585;52.530;7.320;2023-03-01T03:41:51;6.67;;;5.57;;
11064;SDS011;5585;52.530;7.320;2023-03-01T03:44:18;7.13;;;5.93;;
11064;SDS011;5585;52.530;7.320;2023-03-01T03:46:44;7.33;;;5.80;;
11064;SDS011;5585;52.530;7.320;2023-03-01T03:49:11;8.07;;;6.37;;
11064;SDS011;5585;52.530;7.320;2023-03-01T03:51:37;7.47;;;5.90;;
11064;SDS011;5585;52.530;7.320;2023-03-01T03:54:05;6.13;;;5.47;;
11064;SDS011;5585;52.530;7.320;2023-03-01T03:56:32;6.10;;;5.50;;
11064;SDS011;5585;52.530;7.320;2023-03-01T03:58:58;6.50;;;5.50;;
11064;SDS011;5585;52.530;7.320;2023-03-01T04:01:25;7.53;;;5.80;;
11064;SDS011;5585;52.530;7.320;2023-03-01T04:03:51;8.17;;;6.00;;
11064;SDS011;5585;52.530;7.320;2023-03-01T04:06:19;6.87;;;5.60;;
11064;SDS011;5585;52.530;7.320;2023-03-01T04:08:46;6.77;;;6.00;;
11064;SDS011;5585;52.530;7.320;2023-03-01T04:11:17;6.83;;;5.43;;
11064;SDS011;5585;52.530;7.320;2023-03-01T04:13:53;6.97;;;5.83;;
11064;SDS011;5585;52.530;7.320;2023-03-01T04:16:20;5.83;;;5.23;;
11064;SDS011;5585;52.530;7.320;2023-03-01T04:18:47;7.30;;;5.70;;
11064;SDS011;5585;52.530;7.320;2023-03-01T04:21:13;6.40;;;5.53;;
11064;SDS011;5585;52.530;7.320;2023-03-01T04:23:40;7.40;;;5.50;;
11064;SDS011;5585;52.530;7.320;2023-03-01T04:26:07;7.40;;;5.37;;
11064;SDS011;5585;52.530;7.320;2023-03-01T04:28:35;6.37;;;5.77;;
11064;SDS011;5585;52.530;7.320;2023-03-01T04:31:03;6.93;;;5.43;;
11064;SDS011;5585;52.530;7.320;2023-03-01T04:33:37;6.10;;;5.50;;
11064;SDS011;5585;52.530;7.320;2023-03-01T04:36:04;7.00;;;5.70;;
11064;SDS011;5585;52.530;7.320;2023-03-01T04:38:33;7.43;;;6.00;;
11064;SDS011;5585;52.530;7.320;2023-03-01T04:41:02;7.30;;;5.80;;
11064;SDS011;5585;52.530;7.320;2023-03-01T04:43:28;7.27;;;5.13;;
11064;SDS011;5585;52.530;7.320;2023-03-01T04:46:00;6.53;;;5.60;;
11064;SDS011;5585;52.530;7.320;2023-03-01T04:48:28;9.27;;;6.80;;
11064;SDS011;5585;52.530;7.320;2023-03-01T04:50:55;9.70;;;7.30;;
11064;SDS011;5585;52.530;7.320;2023-03-01T04:53:21;14.23;;;10.70;;
11064;SDS011;5585;52.530;7.320;2023-03-01T04:55:48;22.37;;;15.40;;
11064;SDS011;5585;52.530;7.320;2023-03-01T04:58:14;20.33;;;13.57;;
11064;SDS011;5585;52.530;7.320;2023-03-01T05:00:41;15.60;;;11.20;;
11064;SDS011;5585;52.530;7.320;2023-03-01T05:03:09;13.63;;;10.20;;
11064;SDS011;5585;52.530;7.320;2023-03-01T05:05:36;14.00;;;11.27;;
11064;SDS011;5585;52.530;7.320;2023-03-01T05:08:03;13.20;;;11.17;;
11064;SDS011;5585;52.530;7.320;2023-03-01T05:10:32;11.97;;;10.03;;
11064;SDS011;5585;52.530;7.320;2023-03-01T05:13:00;11.17;;;9.13;;
11064;SDS011;5585;52.530;7.320;2023-03-01T05:15:27;10.67;;;8.37;;
11064;SDS011;5585;52.530;7.320;2023-03-01T05:17:56;9.53;;;7.50;;
11064;SDS011;5585;52.530;7.320;2023-03-01T05:20:25;8.27;;;7.03;;
11064;SDS011;5585;52.530;7.320;2023-03-01T05:22:51;8.17;;;6.40;;
11064;SDS011;5585;52.530;7.320;2023-03-01T05:25:20;6.90;;;5.57;;
11064;SDS011;5585;52.530;7.320;2023-03-01T05:27:47;6.97;;;5.97;;
11064;SDS011;5585;52.530;7.320;2023-03-01T05:30:14;8.73;;;6.10;;
11064;SDS011;5585;52.530;7.320;2023-03-01T05:32:43;7.77;;;6.43;;
11064;SDS011;5585;52.530;7.320;2023-03-01T05:35:10;7.00;;;6.30;;
11064;SDS011;5585;52.530;7.320;2023-03-01T05:37:40;6.73;;;6.00;;
11064;SDS011;5585;52.530;7.320;2023-03-01T05:40:08;7.33;;;5.90;;
11064;SDS011;5585;52.530;7.320;2023-03-01T05:42:41;7.93;;;6.20;;
11064;SDS011;5585;52.530;7.320;2023-03-01T05:45:07;8.40;;;6.67;;
11064;SDS011;5585;52.530;7.320;2023-03-01T05:47:35;7.30;;;6.50;;
11064;SDS011;5585;52.530;7.320;2023-03-01T05:50:01;7.40;;;6.53;;
11064;SDS011;5585;52.530;7.320;2023-03-01T05:52:28;7.57;;;6.53;;
11064;SDS011;5585;52.530;7.320;2023-03-01T05:54:56;9.07;;;6.53;;
11064;SDS011;5585;52.530;7.320;2023-03-01T05:57:23;8.07;;;6.30;;
11064;SDS011;5585;52.530;7.320;2023-03-01T05:59:50;7.30;;;6.40;;
11064;SDS011;5585;52.530;7.320;2023-03-01T06:02:17;7.40;;;6.50;;
11064;SDS011;5585;52.530;7.320;2023-03-01T06:04:43;7.90;;;7.00;;
11064;SDS011;5585;52.530;7.320;2023-03-01T06:07:10;8.13;;;6.90;;
11064;SDS011;5585;52.530;7.320;2023-03-01T06:09:36;7.27;;;6.20;;
11064;SDS011;5585;52.530;7.320;2023-03-01T06:12:05;6.60;;;5.90;;
11064;SDS011;5585;52.530;7.320;2023-03-01T06:14:31;7.27;;;6.47;;
11064;SDS011;5585;52.530;7.320;2023-03-01T06:16:58;7.50;;;6.70;;
11064;SDS011;5585;52.530;7.320;2023-03-01T06:19:24;8.03;;;6.37;;
11064;SDS011;5585;52.530;7.320;2023-03-01T06:21:51;7.93;;;6.10;;
11064;SDS011;5585;52.530;7.320;2023-03-01T06:24:18;7.83;;;6.47;;
11064;SDS011;5585;52.530;7.320;2023-03-01T06:26:44;7.50;;;6.50;;
11064;SDS011;5585;52.530;7.320;2023-03-01T06:29:12;7.97;;;6.03;;
11064;SDS011;5585;52.530;7.320;2023-03-01T06:31:39;7.77;;;5.67;;
11064;SDS011;5585;52.530;7.320;2023-03-01T06:34:06;7.47;;;5.87;;
11064;SDS011;5585;52.530;7.320;2023-03-01T06:36:32;8.20;;;6.60;;
11064;SDS011;5585;52.530;7.320;2023-03-01T06:38:59;8.10;;;7.10;;
11064;SDS011;5585;52.530;7.320;2023-03-01T06:41:25;16.03;;;11.70;;
11064;SDS011;5585;52.530;7.320;2023-03-01T06:43:52;14.50;;;11.20;;
11064;SDS011;5585;52.530;7.320;2023-03-01T06:46:20;11.73;;;9.30;;
11064;SDS011;5585;52.530;7.320;2023-03-01T06:48:47;9.17;;;8.23;;
11064;SDS011;5585;52.530;7.320;2023-03-01T06:51:13;9.23;;;7.40;;
11064;SDS011;5585;52.530;7.320;2023-03-01T06:53:40;8.40;;;7.23;;
11064;SDS011;5585;52.530;7.320;2023-03-01T06:56:07;8.70;;;7.33;;
11064;SDS011;5585;52.530;7.320;2023-03-01T06:58:33;12.83;;;7.30;;
11064;SDS011;5585;52.530;7.320;2023-03-01T07:01:00;7.93;;;6.50;;
11064;SDS011;5585;52.530;7.320;2023-03-01T07:03:28;6.90;;;6.20;;
11064;SDS011;5585;52.530;7.320;2023-03-01T07:05:54;8.57;;;6.63;;
11064;SDS011;5585;52.530;7.320;2023-03-01T07:08:21;8.20;;;7.27;;
11064;SDS011;5585;52.530;7.320;2023-03-01T07:10:47;8.33;;;6.40;;
11064;SDS011;5585;52.530;7.320;2023-03-01T07:13:14;9.67;;;7.63;;
11064;SDS011;5585;52.530;7.320;2023-03-01T07:15:40;8.83;;;7.30;;
11064;SDS011;5585;52.530;7.320;2023-03-01T07:18:07;8.97;;;6.97;;
11064;SDS011;5585;52.530;7.320;2023-03-01T07:20:36;9.27;;;7.23;;
11064;SDS011;5585;52.530;7.320;2023-03-01T07:23:03;8.00;;;6.87;;
11064;SDS011;5585;52.530;7.320;2023-03-01T07:25:31;11.20;;;7.10;;
11064;SDS011;5585;52.530;7.320;2023-03-01T07:27:58;9.70;;;7.50;;
11064;SDS011;5585;52.530;7.320;2023-03-01T07:30:25;8.33;;;6.53;;
11064;SDS011;5585;52.530;7.320;2023-03-01T07:32:53;8.43;;;6.67;;
11064;SDS011;5585;52.530;7.320;2023-03-01T07:35:20;8.30;;;7.00;;
11064;SDS011;5585;52.530;7.320;2023-03-01T07:37:48;8.17;;;6.33;;
11064;SDS011;5585;52.530;7.320;2023-03-01T07:40:14;7.73;;;6.63;;
11064;SDS011;5585;52.530;7.320;2023-03-01T07:42:41;9.23;;;7.27;;
11064;SDS011;5585;52.530;7.320;2023-03-01T07:45:08;8.23;;;6.47;;
11064;SDS011;5585;52.530;7.320;2023-03-01T07:47:34;8.50;;;6.63;;
11064;SDS011;5585;52.530;7.320;2023-03-01T07:50:01;8.43;;;7.50;;
11064;SDS011;5585;52.530;7.320;2023-03-01T07:52:28;7.87;;;6.97;;
11064;SDS011;5585;52.530;7.320;2023-03-01T07:54:56;9.77;;;8.07;;
11064;SDS011;5585;52.530;7.320;2023-03-01T07:57:22;10.27;;;8.03;;
11064;SDS011;5585;52.530;7.320;2023-03-01T07:59:49;11.13;;;7.90;;
11064;SDS011;5585;52.530;7.320;2023-03-01T08:02:15;10.30;;;7.87;;
11064;SDS011;5585;52.530;7.320;2023-03-01T08:04:42;9.77;;;8.30;;
11064;SDS011;5585;52.530;7.320;2023-03-01T08:07:08;10.43;;;7.53;;
11064;SDS011;5585;52.530;7.320;2023-03-01T08:09:35;9.30;;;6.97;;
11064;SDS011;5585;52.530;7.320;2023-03-01T08:12:04;7.07;;;5.87;;
11064;SDS011;5585;52.530;7.320;2023-03-01T08:14:31;7.57;;;6.53;;
11064;SDS011;5585;52.530;7.320;2023-03-01T08:16:57;9.00;;;6.93;;
11064;SDS011;5585;52.530;7.320;2023-03-01T08:19:24;6.43;;;5.73;;
11064;SDS011;5585;52.530;7.320;2023-03-01T08:21:50;7.83;;;6.40;;
11064;SDS011;5585;52.530;7.320;2023-03-01T08:24:17;7.63;;;6.57;;
11064;SDS011;5585;52.530;7.320;2023-03-01T08:26:43;6.33;;;5.63;;
11064;SDS011;5585;52.530;7.320;2023-03-01T08:29:11;8.67;;;6.30;;
11064;SDS011;5585;52.530;7.320;2023-03-01T08:31:39;8.00;;;6.03;;
11064;SDS011;5585;52.530;7.320;2023-03-01T08:34:07;6.20;;;5.40;;
11064;SDS011;5585;52.530;7.320;2023-03-01T08:36:35;7.03;;;5.03;;
11064;SDS011;5585;52.530;7.320;2023-03-01T08:39:02;5.33;;;4.57;;
11064;SDS011;5585;52.530;7.320;2023-03-01T08:41:28;5.60;;;4.73;;
11064;SDS011;5585;52.530;7.320;2023-03-01T08:43:55;5.27;;;4.77;;
11064;SDS011;5585;52.530;7.320;2023-03-01T08:46:26;5.20;;;4.50;;
11064;SDS011;5585;52.530;7.320;2023-03-01T08:48:52;5.50;;;4.30;;
11064;SDS011;5585;52.530;7.320;2023-03-01T08:51:19;5.17;;;4.07;;
11064;SDS011;5585;52.530;7.320;2023-03-01T08:53:46;5.20;;;4.27;;
11064;SDS011;5585;52.530;7.320;2023-03-01T08:56:13;5.97;;;3.90;;
11064;SDS011;5585;52.530;7.320;2023-03-01T08:58:43;4.37;;;3.73;;
11064;SDS011;5585;52.530;7.320;2023-03-01T09:01:11;5.80;;;4.30;;
11064;SDS011;5585;52.530;7.320;2023-03-01T09:03:39;4.90;;;3.53;;
11064;SDS011;5585;52.530;7.320;2023-03-01T09:06:06;5.10;;;4.07;;
11064;SDS011;5585;52.530;7.320;2023-03-01T09:08:34;5.20;;;3.93;;
11064;SDS011;5585;52.530;7.320;2023-03-01T09:11:01;3.90;;;3.50;;
11064;SDS011;5585;52.530;7.320;2023-03-01T09:13:27;3.83;;;3.33;;
11064;SDS011;5585;52.530;7.320;2023-03-01T09:15:56;4.43;;;3.43;;
11064;SDS011;5585;52.530;7.320;2023-03-01T09:18:22;4.47;;;3.53;;
11064;SDS011;5585;52.530;7.320;2023-03-01T09:20:50;3.90;;;3.10;;
11064;SDS011;5585;52.530;7.320;2023-03-01T09:23:20;6.10;;;3.60;;
11064;SDS011;5585;52.530;7.320;2023-03-01T09:25:46;4.80;;;3.60;;
11064;SDS011;5585;52.530;7.320;2023-03-01T09:28:13;4.03;;;3.30;;
11064;SDS011;5585;52.530;7.320;2023-03-01T09:30:39;4.97;;;3.47;;
11064;SDS011;5585;52.530;7.320;2023-03-01T09:33:06;3.37;;;3.03;;
11064;SDS011;5585;52.530;7.320;2023-03-01T09:35:32;3.40;;;3.00;;
11064;SDS011;5585;52.530;7.320;2023-03-01T09:38:00;3.80;;;3.10;;
11064;SDS011;5585;52.530;7.320;2023-03-01T09:40:27;3.10;;;2.80;;
11064;SDS011;5585;52.530;7.320;2023-03-01T09:42:55;3.20;;;2.90;;
11064;SDS011;5585;52.530;7.320;2023-03-01T09:45:27;3.60;;;3.13;;
11064;SDS011;5585;52.530;7.320;2023-03-01T09:47:56;4.43;;;3.10;;
11064;SDS011;5585;52.530;7.320;2023-03-01T09:50:23;4.27;;;3.10;;
11064;SDS011;5585;52.530;7.320;2023-03-01T09:52:54;3.50;;;3.03;;
11064;SDS011;5585;52.530;7.320;2023-03-01T09:55:29;3.90;;;2.40;;
11064;SDS011;5585;52.530;7.320;2023-03-01T09:57:57;3.80;;;2.83;;
11064;SDS011;5585;52.530;7.320;2023-03-01T10:00:33;4.73;;;3.40;;
11064;SDS011;5585;52.530;7.320;2023-03-01T10:03:06;4.37;;;2.93;;
11064;SDS011;5585;52.530;7.320;2023-03-01T10:05:41;4.00;;;2.90;;
11064;SDS011;5585;52.530;7.320;2023-03-01T10:10:52;3.00;;;2.57;;
11064;SDS011;5585;52.530;7.320;2023-03-01T10:13:21;4.17;;;2.60;;
11064;SDS011;5585;52.530;7.320;2023-03-01T10:15:49;3.87;;;2.57;;
11064;SDS011;5585;52.530;7.320;2023-03-01T10:18:20;3.20;;;2.87;;
11064;SDS011;5585;52.530;7.320;2023-03-01T10:20:50;5.20;;;2.90;;
11064;SDS011;5585;52.530;7.320;2023-03-01T10:23:18;3.27;;;2.53;;
11064;SDS011;5585;52.530;7.320;2023-03-01T10:25:47;3.73;;;3.07;;
11064;SDS011;5585;52.530;7.320;2023-03-01T10:28:20;3.77;;;2.67;;
11064;SDS011;5585;52.530;7.320;2023-03-01T10:30:51;3.60;;;2.80;;
11064;SDS011;5585;52.530;7.320;2023-03-01T10:33:19;3.30;;;2.60;;
11064;SDS011;5585;52.530;7.320;2023-03-01T10:35:46;4.63;;;3.00;;
11064;SDS011;5585;52.530;7.320;2023-03-01T10:38:14;3.40;;;2.60;;
11064;SDS011;5585;52.530;7.320;2023-03-01T10:40:50;5.03;;;2.97;;
11064;SDS011;5585;52.530;7.320;2023-03-01T10:43:17;4.43;;;3.20;;
11064;SDS011;5585;52.530;7.320;2023-03-01T10:45:45;4.50;;;2.93;;
11064;SDS011;5585;52.530;7.320;2023-03-01T10:48:13;3.80;;;2.57;;
11064;SDS011;5585;52.530;7.320;2023-03-01T10:50:40;3.63;;;2.90;;
11064;SDS011;5585;52.530;7.320;2023-03-01T10:53:08;4.33;;;2.70;;
11064;SDS011;5585;52.530;7.320;2023-03-01T10:55:43;3.00;;;2.50;;
11064;SDS011;5585;52.530;7.320;2023-03-01T10:58:17;4.17;;;3.00;;
11064;SDS011;5585;52.530;7.320;2023-03-01T11:00:49;3.70;;;2.80;;
11064;SDS011;5585;52.530;7.320;2023-03-01T11:03:18;3.83;;;2.80;;
11064;SDS011;5585;52.530;7.320;2023-03-01T11:05:58;3.23;;;2.60;;
11064;SDS011;5585;52.530;7.320;2023-03-01T11:08:29;4.40;;;2.63;;
11064;SDS011;5585;52.530;7.320;2023-03-01T11:11:03;3.83;;;2.60;;
11064;SDS011;5585;52.530;7.320;2023-03-01T11:13:30;3.27;;;2.70;;
11064;SDS011;5585;52.530;7.320;2023-03-01T11:16:01;4.77;;;3.40;;
11064;SDS011;5585;52.530;7.320;2023-03-01T11:18:29;3.83;;;2.80;;
11064;SDS011;5585;52.530;7.320;2023-03-01T11:20:56;5.37;;;3.20;;
11064;SDS011;5585;52.530;7.320;2023-03-01T11:23:24;3.73;;;2.70;;
11064;SDS011;5585;52.530;7.320;2023-03-01T11:25:53;3.93;;;2.37;;
11064;SDS011;5585;52.530;7.320;2023-03-01T11:28:21;3.13;;;2.50;;
11064;SDS011;5585;52.530;7.320;2023-03-01T11:30:51;4.43;;;2.50;;
11064;SDS011;5585;52.530;7.320;2023-03-01T11:33:24;5.23;;;2.87;;
11064;SDS011;5585;52.530;7.320;2023-03-01T11:35:55;5.93;;;2.13;;
11064;SDS011;5585;52.530;7.320;2023-03-01T11:38:23;3.20;;;2.50;;
11064;SDS011;5585;52.530;7.320;2023-03-01T11:40:53;3.37;;;2.50;;
11064;SDS011;5585;52.530;7.320;2023-03-01T11:43:26;4.97;;;3.17;;
11064;SDS011;5585;52.530;7.320;2023-03-01T11:46:02;3.40;;;2.93;;
11064;SDS011;5585;52.530;7.320;2023-03-01T11:51:22;4.43;;;3.17;;
11064;SDS011;5585;52.530;7.320;2023-03-01T11:53:52;4.33;;;3.10;;
11064;SDS011;5585;52.530;7.320;2023-03-01T11:56:22;5.00;;;3.17;;
11064;SDS011;5585;52.530;7.320;2023-03-01T11:58:59;4.43;;;2.97;;
11064;SDS011;5585;52.530;7.320;2023-03-01T12:01:40;3.87;;;3.03;;
11064;SDS011;5585;52.530;7.320;2023-03-01T12:06:59;5.23;;;2.90;;
11064;SDS011;5585;52.530;7.320;2023-03-01T12:09:31;3.87;;;2.87;;
11064;SDS011;5585;52.530;7.320;2023-03-01T12:12:11;3.93;;;2.50;;
11064;SDS011;5585;52.530;7.320;2023-03-01T12:14:46;3.30;;;2.50;;
11064;SDS011;5585;52.530;7.320;2023-03-01T12:17:25;3.57;;;2.83;;
11064;SDS011;5585;52.530;7.320;2023-03-01T12:23:08;4.20;;;3.30;;
11064;SDS011;5585;52.530;7.320;2023-03-01T12:25:36;3.97;;;2.87;;
11064;SDS011;5585;52.530;7.320;2023-03-01T12:31:08;5.00;;;3.20;;
11064;SDS011;5585;52.530;7.320;2023-03-01T12:33:41;3.60;;;2.40;;
11064;SDS011;5585;52.530;7.320;2023-03-01T12:38:58;5.10;;;3.03;;
11064;SDS011;5585;52.530;7.320;2023-03-01T12:41:32;3.63;;;2.63;;
11064;SDS011;5585;52.530;7.320;2023-03-01T12:44:08;3.43;;;2.50;;
11064;SDS011;5585;52.530;7.320;2023-03-01T12:46:43;3.70;;;3.10;;
11064;SDS011;5585;52.530;7.320;2023-03-01T12:49:12;3.60;;;3.13;;
11064;SDS011;5585;52.530;7.320;2023-03-01T12:51:40;4.23;;;2.80;;
11064;SDS011;5585;52.530;7.320;2023-03-01T12:54:14;5.00;;;2.77;;
11064;SDS011;5585;52.530;7.320;2023-03-01T12:56:41;4.33;;;2.70;;
11064;SDS011;5585;52.530;7.320;2023-03-01T12:59:12;3.47;;;2.73;;
11064;SDS011;5585;52.530;7.320;2023-03-01T13:01:41;3.53;;;2.90;;
11064;SDS011;5585;52.530;7.320;2023-03-01T13:04:17;5.27;;;2.90;;
11064;SDS011;5585;52.530;7.320;2023-03-01T13:06:47;3.67;;;3.10;;
11064;SDS011;5585;52.530;7.320;2023-03-01T13:09:17;3.30;;;2.70;;
11064;SDS011;5585;52.530;7.320;2023-03-01T13:11:46;3.13;;;2.60;;
11064;SDS011;5585;52.530;7.320;2023-03-01T13:16:58;3.13;;;2.77;;
11064;SDS011;5585;52.530;7.320;2023-03-01T13:19:25;4.07;;;3.27;;
11064;SDS011;5585;52.530;7.320;2023-03-01T13:21:54;3.13;;;2.73;;
11064;SDS011;5585;52.530;7.320;2023-03-01T13:24:25;4.63;;;3.00;;
11064;SDS011;5585;52.530;7.320;2023-03-01T13:27:09;5.13;;;3.07;;
11064;SDS011;5585;52.530;7.320;2023-03-01T13:29:43;3.33;;;2.73;;
11064;SDS011;5585;52.530;7.320;2023-03-01T13:32:18;3.40;;;2.60;;
11064;SDS011;5585;52.530;7.320;2023-03-01T13:34:46;4.40;;;3.13;;
11064;SDS011;5585;52.530;7.320;2023-03-01T13:37:23;3.23;;;2.77;;
11064;SDS011;5585;52.530;7.320;2023-03-01T13:39:55;3.97;;;2.40;;
11064;SDS011;5585;52.530;7.320;2023-03-01T13:45:16;4.50;;;2.80;;
11064;SDS011;5585;52.530;7.320;2023-03-01T13:47:43;3.00;;;2.70;;
11064;SDS011;5585;52.530;7.320;2023-03-01T13:50:16;3.83;;;3.13;;
11064;SDS011;5585;52.530;7.320;2023-03-01T13:52:44;4.50;;;2.90;;
11064;SDS011;5585;52.530;7.320;2023-03-01T13:55:18;3.93;;;2.87;;
11064;SDS011;5585;52.530;7.320;2023-03-01T13:57:46;4.30;;;2.50;;
11064;SDS011;5585;52.530;7.320;2023-03-01T14:00:25;2.80;;;2.40;;
11064;SDS011;5585;52.530;7.320;2023-03-01T14:02:59;3.40;;;2.70;;
11064;SDS011;5585;52.530;7.320;2023-03-01T14:05:25;4.00;;;3.20;;
11064;SDS011;5585;52.530;7.320;2023-03-01T14:07:52;3.07;;;2.67;;
11064;SDS011;5585;52.530;7.320;2023-03-01T14:10:20;3.13;;;2.80;;
11064;SDS011;5585;52.530;7.320;2023-03-01T14:12:48;4.40;;;2.90;;
11064;SDS011;5585;52.530;7.320;2023-03-01T14:15:17;4.85;;;3.03;;
11064;SDS011;5585;52.530;7.320;2023-03-01T14:17:59;4.47;;;3.00;;
11064;SDS011;5585;52.530;7.320;2023-03-01T14:20:27;3.50;;;3.10;;
11064;SDS011;5585;52.530;7.320;2023-03-01T14:22:55;4.03;;;3.10;;
11064;SDS011;5585;52.530;7.320;2023-03-01T14:25:25;3.40;;;3.05;;
11064;SDS011;5585;52.530;7.320;2023-03-01T14:27:54;3.97;;;3.23;;
11064;SDS011;5585;52.530;7.320;2023-03-01T14:30:23;4.13;;;3.23;;
11064;SDS011;5585;52.530;7.320;2023-03-01T14:32:53;4.13;;;3.00;;
11064;SDS011;5585;52.530;7.320;2023-03-01T14:35:21;4.93;;;3.40;;
11064;SDS011;5585;52.530;7.320;2023-03-01T14:37:48;5.13;;;3.60;;
11064;SDS011;5585;52.530;7.320;2023-03-01T14:40:20;4.53;;;3.53;;
11064;SDS011;5585;52.530;7.320;2023-03-01T14:42:48;4.30;;;3.40;;
11064;SDS011;5585;52.530;7.320;2023-03-01T14:45:14;5.27;;;3.60;;
11064;SDS011;5585;52.530;7.320;2023-03-01T14:47:43;4.77;;;3.53;;
11064;SDS011;5585;52.530;7.320;2023-03-01T14:50:15;7.03;;;3.70;;
11064;SDS011;5585;52.530;7.320;2023-03-01T14:52:46;4.70;;;3.50;;
11064;SDS011;5585;52.530;7.320;2023-03-01T14:55:15;5.50;;;3.77;;
11064;SDS011;5585;52.530;7.320;2023-03-01T14:57:42;6.40;;;4.30;;
11064;SDS011;5585;52.530;7.320;2023-03-01T15:00:13;6.40;;;4.30;;
11064;SDS011;5585;52.530;7.320;2023-03-01T15:02:42;5.70;;;4.50;;
11064;SDS011;5585;52.530;7.320;2023-03-01T15:05:09;4.30;;;3.73;;
11064;SDS011;5585;52.530;7.320;2023-03-01T15:07:36;4.97;;;3.57;;
11064;SDS011;5585;52.530;7.320;2023-03-01T15:10:05;5.70;;;4.23;;
11064;SDS011;5585;52.530;7.320;2023-03-01T15:12:34;5.57;;;3.83;;
11064;SDS011;5585;52.530;7.320;2023-03-01T15:15:02;4.63;;;3.70;;
11064;SDS011;5585;52.530;7.320;2023-03-01T15:17:48;4.00;;;3.53;;
11064;SDS011;5585;52.530;7.320;2023-03-01T15:20:16;4.50;;;4.07;;
11064;SDS011;5585;52.530;7.320;2023-03-01T15:22:45;6.80;;;4.37;;
11064;SDS011;5585;52.530;7.320;2023-03-01T15:25:14;5.50;;;4.43;;
11064;SDS011;5585;52.530;7.320;2023-03-01T15:27:44;5.53;;;4.37;;
11064;SDS011;5585;52.530;7.320;2023-03-01T15:30:13;6.27;;;4.40;;
11064;SDS011;5585;52.530;7.320;2023-03-01T15:32:41;5.03;;;4.50;;
11064;SDS011;5585;52.530;7.320;2023-03-01T15:37:50;5.93;;;4.70;;